sensor_id;sensor_type;location;lat;lon;timestamp;P1;durP1;ratioP1;P2;durP2;ratioP2
27899;SDS011;15243;50.726;7.080;2023-05-13T00:02:14;18.23;;;9.68;;
27899;SDS011;15243;50.726;7.080;2023-05-13T00:04:40;13.43;;;9.00;;
27899;SDS011;15243;50.726;7.080;2023-05-13T00:07:07;12.70;;;9.20;;
27899;SDS011;15243;50.726;7.080;2023-05-13T00:09:34;14.18;;;9.77;;
27899;SDS011;15243;50.726;7.080;2023-05-13T00:12:01;12.25;;;9.75;;
27899;SDS011;15243;50.726;7.080;2023-05-13T00:14:28;12.95;;;9.05;;
27899;SDS011;15243;50.726;7.080;2023-05-13T00:16:55;12.38;;;9.27;;
27899;SDS011;15243;50.726;7.080;2023-05-13T00:19:24;16.92;;;9.80;;
27899;SDS011;15243;50.726;7.080;2023-05-13T00:21:50;14.30;;;10.32;;
27899;SDS011;15243;50.726;7.080;2023-05-13T00:24:18;11.05;;;9.80;;
27899;SDS011;15243;50.726;7.080;2023-05-13T00:26:45;13.15;;;10.18;;
27899;SDS011;15243;50.726;7.080;2023-05-13T00:29:13;14.38;;;10.43;;
27899;SDS011;15243;50.726;7.080;2023-05-13T00:31:40;15.32;;;9.88;;
27899;SDS011;15243;50.726;7.080;2023-05-13T00:34:07;12.23;;;10.00;;
27899;SDS011;15243;50.726;7.080;2023-05-13T00:36:33;14.73;;;10.55;;
27899;SDS011;15243;50.726;7.080;2023-05-13T00:39:01;13.70;;;10.38;;
27899;SDS011;15243;50.726;7.080;2023-05-13T00:41:29;16.08;;;10.60;;
27899;SDS011;15243;50.726;7.080;2023-05-13T00:43:56;14.68;;;10.63;;
27899;SDS011;15243;50.726;7.080;2023-05-13T00:46:23;15.20;;;9.70;;
27899;SDS011;15243;50.726;7.080;2023-05-13T00:48:50;12.30;;;9.90;;
27899;SDS011;15243;50.726;7.080;2023-05-13T00:51:17;19.73;;;10.85;;
27899;SDS011;15243;50.726;7.080;2023-05-13T00:53:44;15.50;;;11.20;;
27899;SDS011;15243;50.726;7.080;2023-05-13T00:56:12;15.65;;;11.20;;
27899;SDS011;15243;50.726;7.080;2023-05-13T00:58:40;15.23;;;11.85;;
27899;SDS011;15243;50.726;7.080;2023-05-13T01:01:21;13.10;;;10.68;;
27899;SDS011;15243;50.726;7.080;2023-05-13T01:12:08;10.15;;;8.73;;
27899;SDS011;15243;50.726;7.080;2023-05-13T01:14:44;13.63;;;9.07;;
27899;SDS011;15243;50.726;7.080;2023-05-13T01:17:23;14.30;;;9.32;;
27899;SDS011;15243;50.726;7.080;2023-05-13T01:19:58;13.90;;;9.52;;
27899;SDS011;15243;50.726;7.080;2023-05-13T01:22:30;11.48;;;9.60;;
27899;SDS011;15243;50.726;7.080;2023-05-13T01:24:57;11.27;;;9.55;;
27899;SDS011;15243;50.726;7.080;2023-05-13T01:27:24;13.25;;;9.98;;
27899;SDS011;15243;50.726;7.080;2023-05-13T01:29:51;12.88;;;9.60;;
27899;SDS011;15243;50.726;7.080;2023-05-13T01:32:21;15.73;;;9.65;;
27899;SDS011;15243;50.726;7.080;2023-05-13T01:34:50;14.27;;;9.85;;
27899;SDS011;15243;50.726;7.080;2023-05-13T01:37:18;15.55;;;10.68;;
27899;SDS011;15243;50.726;7.080;2023-05-13T01:39:46;14.32;;;9.48;;
27899;SDS011;15243;50.726;7.080;2023-05-13T01:42:13;11.15;;;9.43;;
27899;SDS011;15243;50.726;7.080;2023-05-13T01:44:41;13.10;;;9.75;;
27899;SDS011;15243;50.726;7.080;2023-05-13T01:47:08;16.23;;;10.82;;
27899;SDS011;15243;50.726;7.080;2023-05-13T01:49:34;14.85;;;10.77;;
27899;SDS011;15243;50.726;7.080;2023-05-13T01:52:01;16.23;;;9.48;;
27899;SDS011;15243;50.726;7.080;2023-05-13T01:54:29;14.52;;;10.02;;
27899;SDS011;15243;50.726;7.080;2023-05-13T01:56:56;12.90;;;11.30;;
27899;SDS011;15243;50.726;7.080;2023-05-13T01:59:23;13.80;;;10.48;;
27899;SDS011;15243;50.726;7.080;2023-05-13T02:01:50;16.13;;;10.32;;
27899;SDS011;15243;50.726;7.080;2023-05-13T02:04:19;15.05;;;10.90;;
27899;SDS011;15243;50.726;7.080;2023-05-13T02:06:46;19.17;;;11.15;;
27899;SDS011;15243;50.726;7.080;2023-05-13T02:09:13;14.90;;;9.85;;
27899;SDS011;15243;50.726;7.080;2023-05-13T02:11:40;14.20;;;9.60;;
27899;SDS011;15243;50.726;7.080;2023-05-13T02:14:07;13.68;;;9.73;;
27899;SDS011;15243;50.726;7.080;2023-05-13T02:16:34;15.10;;;10.98;;
27899;SDS011;15243;50.726;7.080;2023-05-13T02:19:01;12.77;;;9.75;;
27899;SDS011;15243;50.726;7.080;2023-05-13T02:21:28;13.63;;;10.45;;
27899;SDS011;15243;50.726;7.080;2023-05-13T02:23:56;24.77;;;10.52;;
27899;SDS011;15243;50.726;7.080;2023-05-13T02:26:23;14.35;;;10.13;;
27899;SDS011;15243;50.726;7.080;2023-05-13T02:28:50;21.80;;;11.57;;
27899;SDS011;15243;50.726;7.080;2023-05-13T02:31:17;13.50;;;10.02;;
27899;SDS011;15243;50.726;7.080;2023-05-13T02:33:44;11.88;;;9.80;;
27899;SDS011;15243;50.726;7.080;2023-05-13T02:36:11;15.05;;;10.50;;
27899;SDS011;15243;50.726;7.080;2023-05-13T02:38:38;18.23;;;11.90;;
27899;SDS011;15243;50.726;7.080;2023-05-13T02:41:05;17.17;;;11.10;;
27899;SDS011;15243;50.726;7.080;2023-05-13T02:43:32;16.50;;;11.45;;
27899;SDS011;15243;50.726;7.080;2023-05-13T02:46:00;20.52;;;10.52;;
27899;SDS011;15243;50.726;7.080;2023-05-13T02:48:28;14.32;;;11.10;;
27899;SDS011;15243;50.726;7.080;2023-05-13T02:50:55;15.02;;;11.05;;
27899;SDS011;15243;50.726;7.080;2023-05-13T02:53:22;14.38;;;11.63;;
27899;SDS011;15243;50.726;7.080;2023-05-13T02:55:49;14.82;;;11.88;;
27899;SDS011;15243;50.726;7.080;2023-05-13T02:58:16;16.92;;;12.77;;
27899;SDS011;15243;50.726;7.080;2023-05-13T03:00:43;18.25;;;12.15;;
27899;SDS011;15243;50.726;7.080;2023-05-13T03:03:10;21.25;;;12.88;;
27899;SDS011;15243;50.726;7.080;2023-05-13T03:05:38;19.75;;;12.27;;
27899;SDS011;15243;50.726;7.080;2023-05-13T03:08:05;18.30;;;12.85;;
27899;SDS011;15243;50.726;7.080;2023-05-13T03:10:32;18.75;;;12.88;;
27899;SDS011;15243;50.726;7.080;2023-05-13T03:12:59;21.42;;;13.30;;
27899;SDS011;15243;50.726;7.080;2023-05-13T03:15:26;16.17;;;11.65;;
27899;SDS011;15243;50.726;7.080;2023-05-13T03:17:53;18.30;;;12.98;;
27899;SDS011;15243;50.726;7.080;2023-05-13T03:20:20;21.40;;;13.75;;
27899;SDS011;15243;50.726;7.080;2023-05-13T03:22:48;17.25;;;12.40;;
27899;SDS011;15243;50.726;7.080;2023-05-13T03:25:15;15.75;;;12.88;;
27899;SDS011;15243;50.726;7.080;2023-05-13T03:27:42;20.30;;;13.05;;
27899;SDS011;15243;50.726;7.080;2023-05-13T03:30:09;23.02;;;15.05;;
27899;SDS011;15243;50.726;7.080;2023-05-13T03:32:36;20.77;;;14.00;;
27899;SDS011;15243;50.726;7.080;2023-05-13T03:35:03;16.67;;;13.02;;
27899;SDS011;15243;50.726;7.080;2023-05-13T03:37:31;16.73;;;13.00;;
27899;SDS011;15243;50.726;7.080;2023-05-13T03:39:58;28.10;;;17.27;;
27899;SDS011;15243;50.726;7.080;2023-05-13T03:42:26;20.60;;;14.68;;
27899;SDS011;15243;50.726;7.080;2023-05-13T03:44:55;24.48;;;16.70;;
27899;SDS011;15243;50.726;7.080;2023-05-13T03:47:24;21.95;;;15.98;;
27899;SDS011;15243;50.726;7.080;2023-05-13T03:49:51;22.42;;;16.05;;
27899;SDS011;15243;50.726;7.080;2023-05-13T03:52:18;21.10;;;16.35;;
27899;SDS011;15243;50.726;7.080;2023-05-13T03:54:45;24.20;;;17.80;;
27899;SDS011;15243;50.726;7.080;2023-05-13T03:57:12;24.27;;;17.23;;
27899;SDS011;15243;50.726;7.080;2023-05-13T03:59:39;23.98;;;16.80;;
27899;SDS011;15243;50.726;7.080;2023-05-13T04:02:06;22.23;;;17.10;;
27899;SDS011;15243;50.726;7.080;2023-05-13T04:04:33;25.35;;;16.35;;
27899;SDS011;15243;50.726;7.080;2023-05-13T04:07:00;21.85;;;16.70;;
27899;SDS011;15243;50.726;7.080;2023-05-13T04:09:27;24.98;;;16.52;;
27899;SDS011;15243;50.726;7.080;2023-05-13T04:11:53;22.85;;;16.90;;
27899;SDS011;15243;50.726;7.080;2023-05-13T04:14:20;24.90;;;16.25;;
27899;SDS011;15243;50.726;7.080;2023-05-13T04:16:47;19.80;;;15.70;;
27899;SDS011;15243;50.726;7.080;2023-05-13T04:19:14;28.70;;;16.23;;
27899;SDS011;15243;50.726;7.080;2023-05-13T04:21:41;24.15;;;16.45;;
27899;SDS011;15243;50.726;7.080;2023-05-13T04:24:08;27.02;;;16.90;;
27899;SDS011;15243;50.726;7.080;2023-05-13T04:26:36;21.80;;;16.15;;
27899;SDS011;15243;50.726;7.080;2023-05-13T04:29:04;25.83;;;15.93;;
27899;SDS011;15243;50.726;7.080;2023-05-13T04:31:31;24.70;;;15.18;;
27899;SDS011;15243;50.726;7.080;2023-05-13T04:33:58;20.48;;;15.52;;
27899;SDS011;15243;50.726;7.080;2023-05-13T04:36:25;20.45;;;14.73;;
27899;SDS011;15243;50.726;7.080;2023-05-13T04:38:52;26.42;;;16.33;;
27899;SDS011;15243;50.726;7.080;2023-05-13T04:41:20;30.30;;;18.85;;
27899;SDS011;15243;50.726;7.080;2023-05-13T04:43:47;29.33;;;19.52;;
27899;SDS011;15243;50.726;7.080;2023-05-13T04:46:14;27.27;;;19.88;;
27899;SDS011;15243;50.726;7.080;2023-05-13T04:48:41;31.55;;;18.90;;
27899;SDS011;15243;50.726;7.080;2023-05-13T04:51:08;29.40;;;19.08;;
27899;SDS011;15243;50.726;7.080;2023-05-13T04:53:36;30.73;;;18.95;;
27899;SDS011;15243;50.726;7.080;2023-05-13T04:56:03;28.98;;;19.10;;
27899;SDS011;15243;50.726;7.080;2023-05-13T04:58:31;30.42;;;19.98;;
27899;SDS011;15243;50.726;7.080;2023-05-13T05:00:58;25.98;;;18.67;;
27899;SDS011;15243;50.726;7.080;2023-05-13T05:03:25;27.80;;;19.63;;
27899;SDS011;15243;50.726;7.080;2023-05-13T05:05:52;28.45;;;17.80;;
27899;SDS011;15243;50.726;7.080;2023-05-13T05:08:18;30.13;;;19.00;;
27899;SDS011;15243;50.726;7.080;2023-05-13T05:10:46;28.15;;;19.02;;
27899;SDS011;15243;50.726;7.080;2023-05-13T05:13:12;27.92;;;19.05;;
27899;SDS011;15243;50.726;7.080;2023-05-13T05:15:39;26.95;;;19.42;;
27899;SDS011;15243;50.726;7.080;2023-05-13T05:18:07;25.63;;;18.38;;
27899;SDS011;15243;50.726;7.080;2023-05-13T05:20:36;26.77;;;19.17;;
27899;SDS011;15243;50.726;7.080;2023-05-13T05:23:03;26.33;;;19.10;;
27899;SDS011;15243;50.726;7.080;2023-05-13T05:25:30;27.55;;;18.75;;
27899;SDS011;15243;50.726;7.080;2023-05-13T05:27:57;26.63;;;18.30;;
27899;SDS011;15243;50.726;7.080;2023-05-13T05:30:24;25.50;;;18.17;;
27899;SDS011;15243;50.726;7.080;2023-05-13T05:32:51;25.10;;;19.27;;
27899;SDS011;15243;50.726;7.080;2023-05-13T05:35:18;29.60;;;19.50;;
27899;SDS011;15243;50.726;7.080;2023-05-13T05:37:45;22.88;;;17.80;;
27899;SDS011;15243;50.726;7.080;2023-05-13T05:40:12;27.88;;;17.58;;
27899;SDS011;15243;50.726;7.080;2023-05-13T05:42:39;33.20;;;22.35;;
27899;SDS011;15243;50.726;7.080;2023-05-13T05:45:06;26.58;;;19.83;;
27899;SDS011;15243;50.726;7.080;2023-05-13T05:47:34;31.90;;;22.63;;
27899;SDS011;15243;50.726;7.080;2023-05-13T05:50:01;29.70;;;20.73;;
27899;SDS011;15243;50.726;7.080;2023-05-13T05:52:28;30.48;;;21.33;;
27899;SDS011;15243;50.726;7.080;2023-05-13T05:54:54;28.92;;;19.95;;
27899;SDS011;15243;50.726;7.080;2023-05-13T05:57:21;27.60;;;19.60;;
27899;SDS011;15243;50.726;7.080;2023-05-13T05:59:49;29.13;;;20.58;;
27899;SDS011;15243;50.726;7.080;2023-05-13T06:02:16;31.80;;;21.55;;
27899;SDS011;15243;50.726;7.080;2023-05-13T06:04:43;31.95;;;22.10;;
27899;SDS011;15243;50.726;7.080;2023-05-13T06:07:10;32.20;;;22.35;;
27899;SDS011;15243;50.726;7.080;2023-05-13T06:09:38;31.38;;;22.25;;
27899;SDS011;15243;50.726;7.080;2023-05-13T06:12:06;31.90;;;23.13;;
27899;SDS011;15243;50.726;7.080;2023-05-13T06:14:33;36.83;;;24.58;;
27899;SDS011;15243;50.726;7.080;2023-05-13T06:17:00;35.15;;;25.10;;
27899;SDS011;15243;50.726;7.080;2023-05-13T06:19:27;47.05;;;28.42;;
27899;SDS011;15243;50.726;7.080;2023-05-13T06:21:54;50.78;;;32.13;;
27899;SDS011;15243;50.726;7.080;2023-05-13T06:24:21;51.13;;;29.05;;
27899;SDS011;15243;50.726;7.080;2023-05-13T06:26:48;47.38;;;28.27;;
27899;SDS011;15243;50.726;7.080;2023-05-13T06:29:15;48.42;;;29.98;;
27899;SDS011;15243;50.726;7.080;2023-05-13T06:31:43;42.80;;;28.13;;
27899;SDS011;15243;50.726;7.080;2023-05-13T06:34:10;41.05;;;27.30;;
27899;SDS011;15243;50.726;7.080;2023-05-13T06:36:42;38.10;;;26.58;;
27899;SDS011;15243;50.726;7.080;2023-05-13T06:39:09;40.28;;;26.98;;
27899;SDS011;15243;50.726;7.080;2023-05-13T06:41:37;47.15;;;28.52;;
27899;SDS011;15243;50.726;7.080;2023-05-13T06:44:08;38.97;;;27.67;;
27899;SDS011;15243;50.726;7.080;2023-05-13T06:46:35;38.83;;;27.52;;
27899;SDS011;15243;50.726;7.080;2023-05-13T06:49:02;38.40;;;29.05;;
27899;SDS011;15243;50.726;7.080;2023-05-13T06:51:29;40.40;;;28.25;;
27899;SDS011;15243;50.726;7.080;2023-05-13T12:20:41;8.68;;;4.90;;
27899;SDS011;15243;50.726;7.080;2023-05-13T12:23:08;14.73;;;5.57;;
27899;SDS011;15243;50.726;7.080;2023-05-13T12:25:38;8.60;;;5.00;;
27899;SDS011;15243;50.726;7.080;2023-05-13T12:30:56;9.10;;;5.53;;
27899;SDS011;15243;50.726;7.080;2023-05-13T12:33:25;8.45;;;4.68;;
27899;SDS011;15243;50.726;7.080;2023-05-13T12:41:49;12.15;;;5.20;;
27899;SDS011;15243;50.726;7.080;2023-05-13T12:44:19;6.53;;;5.05;;
27899;SDS011;15243;50.726;7.080;2023-05-13T12:46:50;8.10;;;5.03;;
27899;SDS011;15243;50.726;7.080;2023-05-13T12:49:23;7.25;;;5.10;;
27899;SDS011;15243;50.726;7.080;2023-05-13T12:51:51;9.82;;;5.63;;
27899;SDS011;15243;50.726;7.080;2023-05-13T12:54:18;7.03;;;5.07;;
27899;SDS011;15243;50.726;7.080;2023-05-13T12:56:45;8.82;;;5.20;;
27899;SDS011;15243;50.726;7.080;2023-05-13T12:59:13;9.50;;;4.57;;
27899;SDS011;15243;50.726;7.080;2023-05-13T13:01:40;8.32;;;4.70;;
27899;SDS011;15243;50.726;7.080;2023-05-13T13:04:08;5.68;;;4.25;;
27899;SDS011;15243;50.726;7.080;2023-05-13T13:06:35;6.47;;;4.13;;
27899;SDS011;15243;50.726;7.080;2023-05-13T13:09:02;5.65;;;3.72;;
27899;SDS011;15243;50.726;7.080;2023-05-13T13:11:30;5.30;;;4.00;;
27899;SDS011;15243;50.726;7.080;2023-05-13T13:13:57;5.32;;;3.85;;
27899;SDS011;15243;50.726;7.080;2023-05-13T13:16:25;6.70;;;3.72;;
27899;SDS011;15243;50.726;7.080;2023-05-13T13:18:52;7.32;;;3.70;;
27899;SDS011;15243;50.726;7.080;2023-05-13T13:21:22;7.10;;;3.97;;
27899;SDS011;15243;50.726;7.080;2023-05-13T13:23:48;6.72;;;4.00;;
27899;SDS011;15243;50.726;7.080;2023-05-13T13:26:15;4.78;;;3.83;;
27899;SDS011;15243;50.726;7.080;2023-05-13T13:28:42;5.20;;;3.70;;
27899;SDS011;15243;50.726;7.080;2023-05-13T13:31:09;5.15;;;4.10;;
27899;SDS011;15243;50.726;7.080;2023-05-13T13:33:37;8.25;;;3.97;;
27899;SDS011;15243;50.726;7.080;2023-05-13T13:36:04;6.72;;;3.72;;
27899;SDS011;15243;50.726;7.080;2023-05-13T13:38:31;4.50;;;3.30;;
27899;SDS011;15243;50.726;7.080;2023-05-13T13:40:58;5.15;;;3.67;;
27899;SDS011;15243;50.726;7.080;2023-05-13T13:43:25;4.32;;;3.63;;
27899;SDS011;15243;50.726;7.080;2023-05-13T13:45:53;5.25;;;3.60;;
27899;SDS011;15243;50.726;7.080;2023-05-13T13:48:20;4.88;;;3.60;;
27899;SDS011;15243;50.726;7.080;2023-05-13T13:50:47;7.20;;;3.72;;
27899;SDS011;15243;50.726;7.080;2023-05-13T13:53:17;4.07;;;3.42;;
27899;SDS011;15243;50.726;7.080;2023-05-13T13:55:44;5.03;;;3.38;;
27899;SDS011;15243;50.726;7.080;2023-05-13T13:58:11;5.68;;;3.17;;
27899;SDS011;15243;50.726;7.080;2023-05-13T14:00:39;4.53;;;3.00;;
27899;SDS011;15243;50.726;7.080;2023-05-13T14:03:07;5.90;;;3.00;;
27899;SDS011;15243;50.726;7.080;2023-05-13T14:05:33;4.72;;;3.22;;
27899;SDS011;15243;50.726;7.080;2023-05-13T14:08:01;5.38;;;3.20;;
27899;SDS011;15243;50.726;7.080;2023-05-13T14:10:28;4.80;;;3.03;;
27899;SDS011;15243;50.726;7.080;2023-05-13T14:12:54;6.28;;;3.38;;
27899;SDS011;15243;50.726;7.080;2023-05-13T14:15:22;5.10;;;3.65;;
27899;SDS011;15243;50.726;7.080;2023-05-13T14:17:54;6.72;;;3.00;;
27899;SDS011;15243;50.726;7.080;2023-05-13T14:20:21;4.32;;;3.08;;
27899;SDS011;15243;50.726;7.080;2023-05-13T14:22:50;3.65;;;3.00;;
27899;SDS011;15243;50.726;7.080;2023-05-13T14:25:17;6.18;;;3.30;;
27899;SDS011;15243;50.726;7.080;2023-05-13T14:27:44;8.85;;;4.60;;
27899;SDS011;15243;50.726;7.080;2023-05-13T14:30:11;5.32;;;4.15;;
27899;SDS011;15243;50.726;7.080;2023-05-13T14:32:39;7.35;;;4.03;;
27899;SDS011;15243;50.726;7.080;2023-05-13T14:35:10;8.57;;;4.45;;
27899;SDS011;15243;50.726;7.080;2023-05-13T14:37:37;5.32;;;4.10;;
27899;SDS011;15243;50.726;7.080;2023-05-13T14:40:05;8.77;;;5.20;;
27899;SDS011;15243;50.726;7.080;2023-05-13T14:42:32;7.10;;;3.50;;
27899;SDS011;15243;50.726;7.080;2023-05-13T14:44:59;6.05;;;4.00;;
27899;SDS011;15243;50.726;7.080;2023-05-13T14:47:26;5.82;;;3.90;;
27899;SDS011;15243;50.726;7.080;2023-05-13T14:49:53;3.95;;;3.00;;
27899;SDS011;15243;50.726;7.080;2023-05-13T14:52:20;4.30;;;2.25;;
27899;SDS011;15243;50.726;7.080;2023-05-13T14:54:47;2.40;;;2.20;;
27899;SDS011;15243;50.726;7.080;2023-05-13T14:57:14;3.42;;;2.17;;
27899;SDS011;15243;50.726;7.080;2023-05-13T14:59:41;3.85;;;2.60;;
27899;SDS011;15243;50.726;7.080;2023-05-13T15:02:08;3.72;;;2.20;;
27899;SDS011;15243;50.726;7.080;2023-05-13T15:04:35;4.88;;;2.30;;
27899;SDS011;15243;50.726;7.080;2023-05-13T15:07:02;5.05;;;2.55;;
27899;SDS011;15243;50.726;7.080;2023-05-13T15:09:29;12.88;;;2.67;;
27899;SDS011;15243;50.726;7.080;2023-05-13T15:11:56;4.88;;;2.50;;
27899;SDS011;15243;50.726;7.080;2023-05-13T15:14:23;2.58;;;2.30;;
27899;SDS011;15243;50.726;7.080;2023-05-13T15:16:51;5.68;;;3.53;;
27899;SDS011;15243;50.726;7.080;2023-05-13T15:19:18;6.50;;;2.85;;
27899;SDS011;15243;50.726;7.080;2023-05-13T15:21:46;5.25;;;2.70;;
27899;SDS011;15243;50.726;7.080;2023-05-13T15:24:12;4.22;;;2.65;;
27899;SDS011;15243;50.726;7.080;2023-05-13T15:26:39;4.60;;;2.83;;
27899;SDS011;15243;50.726;7.080;2023-05-13T15:29:06;4.45;;;2.80;;
27899;SDS011;15243;50.726;7.080;2023-05-13T15:31:33;5.50;;;2.67;;
27899;SDS011;15243;50.726;7.080;2023-05-13T15:34:01;3.65;;;2.80;;
27899;SDS011;15243;50.726;7.080;2023-05-13T15:36:28;3.75;;;2.67;;
27899;SDS011;15243;50.726;7.080;2023-05-13T15:38:55;6.90;;;3.10;;
27899;SDS011;15243;50.726;7.080;2023-05-13T15:41:22;5.85;;;3.05;;
27899;SDS011;15243;50.726;7.080;2023-05-13T15:43:49;4.93;;;3.00;;
27899;SDS011;15243;50.726;7.080;2023-05-13T15:46:16;4.10;;;3.38;;
27899;SDS011;15243;50.726;7.080;2023-05-13T15:48:43;5.40;;;3.22;;
27899;SDS011;15243;50.726;7.080;2023-05-13T15:51:10;4.93;;;3.13;;
27899;SDS011;15243;50.726;7.080;2023-05-13T15:53:37;5.43;;;3.30;;
27899;SDS011;15243;50.726;7.080;2023-05-13T15:56:04;4.97;;;3.30;;
27899;SDS011;15243;50.726;7.080;2023-05-13T16:01:35;7.03;;;3.65;;
27899;SDS011;15243;50.726;7.080;2023-05-13T16:04:04;4.60;;;3.90;;
27899;SDS011;15243;50.726;7.080;2023-05-13T16:06:31;5.18;;;3.78;;
27899;SDS011;15243;50.726;7.080;2023-05-13T16:08:58;6.60;;;4.13;;
27899;SDS011;15243;50.726;7.080;2023-05-13T16:11:27;6.63;;;4.45;;
27899;SDS011;15243;50.726;7.080;2023-05-13T16:13:54;6.57;;;4.22;;
27899;SDS011;15243;50.726;7.080;2023-05-13T16:16:21;5.00;;;2.80;;
27899;SDS011;15243;50.726;7.080;2023-05-13T16:18:48;5.50;;;2.55;;
27899;SDS011;15243;50.726;7.080;2023-05-13T16:21:15;3.83;;;2.58;;
27899;SDS011;15243;50.726;7.080;2023-05-13T16:23:42;3.15;;;2.50;;
27899;SDS011;15243;50.726;7.080;2023-05-13T16:26:09;6.00;;;2.92;;
27899;SDS011;15243;50.726;7.080;2023-05-13T16:28:37;4.93;;;3.10;;
27899;SDS011;15243;50.726;7.080;2023-05-13T16:31:03;4.65;;;3.08;;
27899;SDS011;15243;50.726;7.080;2023-05-13T16:33:30;4.25;;;3.03;;
27899;SDS011;15243;50.726;7.080;2023-05-13T16:35:59;7.03;;;3.50;;
27899;SDS011;15243;50.726;7.080;2023-05-13T16:38:26;5.93;;;3.33;;
27899;SDS011;15243;50.726;7.080;2023-05-13T16:40:53;5.60;;;2.75;;
27899;SDS011;15243;50.726;7.080;2023-05-13T16:43:20;4.78;;;3.15;;
27899;SDS011;15243;50.726;7.080;2023-05-13T16:45:47;3.35;;;3.05;;
27899;SDS011;15243;50.726;7.080;2023-05-13T16:48:14;6.38;;;3.13;;
27899;SDS011;15243;50.726;7.080;2023-05-13T16:50:42;7.00;;;3.30;;
27899;SDS011;15243;50.726;7.080;2023-05-13T16:53:09;3.72;;;3.08;;
27899;SDS011;15243;50.726;7.080;2023-05-13T16:55:36;6.38;;;3.47;;
27899;SDS011;15243;50.726;7.080;2023-05-13T16:58:03;5.05;;;3.75;;
27899;SDS011;15243;50.726;7.080;2023-05-13T17:00:30;5.25;;;3.22;;
27899;SDS011;15243;50.726;7.080;2023-05-13T17:02:57;4.53;;;3.42;;
27899;SDS011;15243;50.726;7.080;2023-05-13T17:05:24;5.25;;;3.05;;
27899;SDS011;15243;50.726;7.080;2023-05-13T17:07:51;5.05;;;2.83;;
27899;SDS011;15243;50.726;7.080;2023-05-13T17:10:18;2.75;;;2.50;;
27899;SDS011;15243;50.726;7.080;2023-05-13T17:12:45;3.83;;;2.90;;
27899;SDS011;15243;50.726;7.080;2023-05-13T17:15:12;5.00;;;2.42;;
27899;SDS011;15243;50.726;7.080;2023-05-13T17:17:39;3.25;;;2.65;;
27899;SDS011;15243;50.726;7.080;2023-05-13T17:20:06;5.17;;;3.20;;
27899;SDS011;15243;50.726;7.080;2023-05-13T17:22:33;4.55;;;3.20;;
27899;SDS011;15243;50.726;7.080;2023-05-13T17:25:01;5.03;;;3.05;;
27899;SDS011;15243;50.726;7.080;2023-05-13T17:27:28;4.93;;;3.42;;
27899;SDS011;15243;50.726;7.080;2023-05-13T17:29:55;6.30;;;4.20;;
27899;SDS011;15243;50.726;7.080;2023-05-13T17:32:22;5.40;;;3.50;;
27899;SDS011;15243;50.726;7.080;2023-05-13T17:34:49;9.70;;;5.63;;
27899;SDS011;15243;50.726;7.080;2023-05-13T17:37:16;7.93;;;5.65;;
27899;SDS011;15243;50.726;7.080;2023-05-13T17:39:43;13.27;;;6.53;;
27899;SDS011;15243;50.726;7.080;2023-05-13T17:42:09;10.50;;;5.22;;
27899;SDS011;15243;50.726;7.080;2023-05-13T17:44:36;8.43;;;4.80;;
27899;SDS011;15243;50.726;7.080;2023-05-13T17:47:03;5.43;;;3.65;;
27899;SDS011;15243;50.726;7.080;2023-05-13T17:49:30;11.80;;;7.20;;
27899;SDS011;15243;50.726;7.080;2023-05-13T17:51:57;6.30;;;4.63;;
27899;SDS011;15243;50.726;7.080;2023-05-13T17:54:24;6.40;;;4.35;;
27899;SDS011;15243;50.726;7.080;2023-05-13T17:56:51;9.13;;;5.32;;
27899;SDS011;15243;50.726;7.080;2023-05-13T17:59:18;6.47;;;5.13;;
27899;SDS011;15243;50.726;7.080;2023-05-13T18:01:45;6.22;;;5.00;;
27899;SDS011;15243;50.726;7.080;2023-05-13T18:04:12;10.07;;;5.80;;
27899;SDS011;15243;50.726;7.080;2023-05-13T18:06:39;20.98;;;14.82;;
27899;SDS011;15243;50.726;7.080;2023-05-13T18:09:07;44.92;;;31.98;;
27899;SDS011;15243;50.726;7.080;2023-05-13T18:11:34;9.85;;;6.55;;
27899;SDS011;15243;50.726;7.080;2023-05-13T18:14:00;8.48;;;5.93;;
27899;SDS011;15243;50.726;7.080;2023-05-13T18:16:27;25.50;;;19.05;;
27899;SDS011;15243;50.726;7.080;2023-05-13T18:18:54;10.10;;;7.57;;
27899;SDS011;15243;50.726;7.080;2023-05-13T18:21:21;9.63;;;6.40;;
27899;SDS011;15243;50.726;7.080;2023-05-13T18:23:49;27.95;;;17.92;;
27899;SDS011;15243;50.726;7.080;2023-05-13T18:26:16;32.22;;;22.15;;
27899;SDS011;15243;50.726;7.080;2023-05-13T18:28:43;33.88;;;23.00;;
27899;SDS011;15243;50.726;7.080;2023-05-13T18:31:10;30.35;;;22.70;;
27899;SDS011;15243;50.726;7.080;2023-05-13T18:33:37;24.10;;;16.35;;
27899;SDS011;15243;50.726;7.080;2023-05-13T18:36:04;23.92;;;15.63;;
27899;SDS011;15243;50.726;7.080;2023-05-13T18:38:31;17.13;;;11.73;;
27899;SDS011;15243;50.726;7.080;2023-05-13T18:40:58;16.50;;;12.25;;
27899;SDS011;15243;50.726;7.080;2023-05-13T18:43:28;14.75;;;9.23;;
27899;SDS011;15243;50.726;7.080;2023-05-13T18:45:55;12.45;;;9.35;;
27899;SDS011;15243;50.726;7.080;2023-05-13T18:48:23;13.82;;;7.68;;
27899;SDS011;15243;50.726;7.080;2023-05-13T18:50:50;9.57;;;7.60;;
27899;SDS011;15243;50.726;7.080;2023-05-13T18:53:19;13.55;;;8.90;;
27899;SDS011;15243;50.726;7.080;2023-05-13T18:55:46;22.00;;;12.77;;
27899;SDS011;15243;50.726;7.080;2023-05-13T18:58:13;13.20;;;9.60;;
27899;SDS011;15243;50.726;7.080;2023-05-13T19:00:40;12.85;;;9.00;;
27899;SDS011;15243;50.726;7.080;2023-05-13T19:03:07;13.43;;;8.80;;
27899;SDS011;15243;50.726;7.080;2023-05-13T19:05:34;13.23;;;8.77;;
27899;SDS011;15243;50.726;7.080;2023-05-13T19:08:01;13.13;;;8.88;;
27899;SDS011;15243;50.726;7.080;2023-05-13T19:10:28;17.27;;;9.75;;
27899;SDS011;15243;50.726;7.080;2023-05-13T19:12:59;15.88;;;8.98;;
27899;SDS011;15243;50.726;7.080;2023-05-13T19:15:26;12.68;;;9.15;;
27899;SDS011;15243;50.726;7.080;2023-05-13T19:17:53;16.80;;;11.00;;
27899;SDS011;15243;50.726;7.080;2023-05-13T19:20:20;13.00;;;9.15;;
27899;SDS011;15243;50.726;7.080;2023-05-13T19:22:48;12.70;;;7.80;;
27899;SDS011;15243;50.726;7.080;2023-05-13T19:25:15;12.43;;;7.65;;
27899;SDS011;15243;50.726;7.080;2023-05-13T19:27:42;13.48;;;8.82;;
27899;SDS011;15243;50.726;7.080;2023-05-13T19:30:09;13.38;;;9.82;;
27899;SDS011;15243;50.726;7.080;2023-05-13T19:32:37;14.57;;;9.65;;
27899;SDS011;15243;50.726;7.080;2023-05-13T19:35:04;14.38;;;8.43;;
27899;SDS011;15243;50.726;7.080;2023-05-13T19:37:31;16.40;;;9.90;;
27899;SDS011;15243;50.726;7.080;2023-05-13T19:39:58;11.38;;;8.90;;
27899;SDS011;15243;50.726;7.080;2023-05-13T19:42:25;10.13;;;7.53;;
27899;SDS011;15243;50.726;7.080;2023-05-13T19:44:52;10.60;;;7.63;;
27899;SDS011;15243;50.726;7.080;2023-05-13T19:47:20;11.68;;;8.70;;
27899;SDS011;15243;50.726;7.080;2023-05-13T19:49:47;13.50;;;8.55;;
27899;SDS011;15243;50.726;7.080;2023-05-13T19:52:15;11.52;;;8.15;;
27899;SDS011;15243;50.726;7.080;2023-05-13T19:54:41;12.10;;;8.02;;
27899;SDS011;15243;50.726;7.080;2023-05-13T19:57:08;11.15;;;7.57;;
27899;SDS011;15243;50.726;7.080;2023-05-13T19:59:35;12.98;;;7.35;;
27899;SDS011;15243;50.726;7.080;2023-05-13T20:02:04;12.70;;;7.43;;
27899;SDS011;15243;50.726;7.080;2023-05-13T20:04:31;12.02;;;9.02;;
27899;SDS011;15243;50.726;7.080;2023-05-13T20:06:59;12.30;;;9.48;;
27899;SDS011;15243;50.726;7.080;2023-05-13T20:09:26;14.23;;;9.57;;
27899;SDS011;15243;50.726;7.080;2023-05-13T20:11:53;13.43;;;9.13;;
27899;SDS011;15243;50.726;7.080;2023-05-13T20:14:20;12.07;;;9.23;;
27899;SDS011;15243;50.726;7.080;2023-05-13T20:16:54;15.38;;;9.35;;
27899;SDS011;15243;50.726;7.080;2023-05-13T20:19:21;15.02;;;9.05;;
27899;SDS011;15243;50.726;7.080;2023-05-13T20:21:48;15.18;;;8.88;;